Time;durP1;ratioP1;P1;durP2;ratioP2;P2;SDS_P1;SDS_P2;PMS_P1;PMS_P2;Temp;Humidity;BMP_temperature;BMP_pressure;BME280_temperature;BME280_humidity;BME280_pressure;Samples;Min_cycle;Max_cycle;Signal;HPM_P1;HPM_P2
2023/02/22 00:00:49;;;;;;;27.80;15.10;;;6.90;99.90;;;;;;5112799;28;20399;-70
2023/02/22 00:03:23;;;;;;;24.80;12.50;;;6.90;99.90;;;;;;5112742;28;20490;-71
2023/02/22 00:05:52;;;;;;;36.63;16.23;;;6.80;99.90;;;;;;5131293;27;20500;-70
2023/02/22 00:08:19;;;;;;;38.83;16.10;;;6.70;99.90;;;;;;5133693;27;20968;-70
2023/02/22 00:10:45;;;;;;;29.60;16.53;;;6.70;99.90;;;;;;5134478;27;20401;-70
2023/02/22 00:13:13;;;;;;;43.60;16.03;;;6.70;99.90;;;;;;5134583;27;20811;-71
2023/02/22 00:15:43;;;;;;;35.93;15.77;;;6.70;99.90;;;;;;5130267;27;20919;-71
2023/02/22 00:18:11;;;;;;;33.60;16.70;;;6.70;99.90;;;;;;5111275;28;20450;-71
2023/02/22 00:20:37;;;;;;;35.87;16.53;;;6.70;99.90;;;;;;5113404;28;20439;-70
2023/02/22 00:23:08;;;;;;;34.60;17.63;;;6.70;99.90;;;;;;5113030;28;20409;-71
2023/02/22 00:25:34;;;;;;;31.03;16.10;;;6.70;99.90;;;;;;5112191;28;20414;-71
2023/02/22 00:28:00;;;;;;;27.50;14.40;;;6.70;99.90;;;;;;5112748;28;20394;-71
2023/02/22 00:30:28;;;;;;;34.93;14.47;;;6.70;99.90;;;;;;5112813;28;20760;-71
2023/02/22 00:32:55;;;;;;;29.07;15.60;;;6.70;99.90;;;;;;5112832;28;20438;-71
2023/02/22 00:35:23;;;;;;;41.23;18.67;;;6.60;99.90;;;;;;5112784;28;20475;-70
2023/02/22 00:37:51;;;;;;;29.20;15.80;;;6.60;99.90;;;;;;5119360;27;20410;-72
2023/02/22 00:40:25;;;;;;;29.07;15.40;;;6.60;99.90;;;;;;5142588;27;20430;-71
2023/02/22 00:42:52;;;;;;;35.63;14.63;;;6.70;99.90;;;;;;5133725;27;20393;-70
2023/02/22 00:45:20;;;;;;;29.23;14.97;;;6.60;99.90;;;;;;5118417;27;20489;-71
2023/02/22 00:47:46;;;;;;;39.67;16.53;;;6.70;99.90;;;;;;5112512;28;20757;-71
2023/02/22 00:50:12;;;;;;;43.00;16.90;;;6.70;99.90;;;;;;5111549;28;20430;-72
2023/02/22 00:52:38;;;;;;;25.90;13.63;;;6.70;99.90;;;;;;5112582;28;20184;-71
2023/02/22 00:55:06;;;;;;;32.67;15.00;;;6.70;99.90;;;;;;5111274;28;20889;-71
2023/02/22 00:57:35;;;;;;;33.33;15.13;;;6.70;99.90;;;;;;5112297;28;20623;-72
2023/02/22 01:00:11;;;;;;;29.10;16.37;;;6.80;99.90;;;;;;5110897;28;20469;-72
2023/02/22 01:02:41;;;;;;;29.17;13.97;;;6.80;99.90;;;;;;5112896;28;20803;-72
2023/02/22 01:05:09;;;;;;;33.13;14.83;;;6.70;99.90;;;;;;5123924;27;20461;-71
2023/02/22 01:07:37;;;;;;;35.30;16.90;;;6.90;99.90;;;;;;5132693;27;20892;-71
2023/02/22 01:10:02;;;;;;;35.63;17.73;;;6.90;99.90;;;;;;5132297;27;20509;-71
2023/02/22 01:12:28;;;;;;;32.73;16.30;;;6.90;99.90;;;;;;5139564;27;20167;-71
2023/02/22 01:14:55;;;;;;;22.33;12.53;;;6.80;99.90;;;;;;5122569;27;20216;-71
2023/02/22 01:17:22;;;;;;;31.90;15.37;;;6.80;99.90;;;;;;5119153;27;20885;-71
2023/02/22 01:19:47;;;;;;;30.43;13.83;;;6.80;99.90;;;;;;5119144;27;20548;-70
2023/02/22 01:22:13;;;;;;;38.73;16.60;;;6.90;99.90;;;;;;5119207;28;20954;-71
2023/02/22 01:24:38;;;;;;;52.53;17.93;;;6.80;99.90;;;;;;5119030;28;20169;-71
2023/02/22 01:27:04;;;;;;;28.37;16.17;;;6.70;99.90;;;;;;5118764;28;20169;-72
2023/02/22 01:29:29;;;;;;;32.80;15.87;;;6.70;99.90;;;;;;5117612;28;20658;-72
2023/02/22 01:31:55;;;;;;;37.57;15.80;;;6.80;99.90;;;;;;5117659;28;20179;-70
2023/02/22 01:34:22;;;;;;;30.03;14.60;;;6.70;99.90;;;;;;5118945;28;20541;-71
2023/02/22 01:36:49;;;;;;;28.60;16.77;;;6.80;99.90;;;;;;5117528;28;20402;-70
2023/02/22 01:39:16;;;;;;;32.57;15.67;;;6.80;99.90;;;;;;5118632;27;20453;-71
2023/02/22 01:41:43;;;;;;;25.40;14.37;;;6.80;99.90;;;;;;5118841;27;20402;-71
2023/02/22 01:44:25;;;;;;;37.53;16.50;;;6.80;99.90;;;;;;5127977;27;20757;-70
2023/02/22 01:46:51;;;;;;;30.10;14.77;;;6.80;99.90;;;;;;5118563;27;20398;-71
2023/02/22 01:49:17;;;;;;;29.07;15.20;;;6.80;99.90;;;;;;5125094;27;21008;-71
2023/02/22 01:51:49;;;;;;;38.97;16.73;;;6.80;99.90;;;;;;5150497;27;20546;-71
2023/02/22 01:54:29;;;;;;;30.07;14.13;;;6.80;99.90;;;;;;5139221;27;20656;-71
2023/02/22 01:57:28;;;;;;;37.47;14.03;;;6.80;99.90;;;;;;5139060;27;20767;-71
2023/02/22 01:59:59;;;;;;;24.20;14.30;;;6.70;99.90;;;;;;5132153;27;20465;-72
2023/02/22 02:02:26;;;;;;;36.93;16.53;;;6.70;99.90;;;;;;5139279;27;20458;-72
2023/02/22 02:04:54;;;;;;;43.60;16.83;;;6.60;99.90;;;;;;5130183;27;20978;-72
2023/02/22 02:07:21;;;;;;;46.83;18.77;;;6.50;99.90;;;;;;5118350;28;20405;-72
2023/02/22 02:09:51;;;;;;;45.53;18.87;;;6.50;99.90;;;;;;5117261;28;20446;-72
2023/02/22 02:12:18;;;;;;;57.03;18.03;;;6.60;99.90;;;;;;5124785;27;20764;-73
2023/02/22 02:14:44;;;;;;;42.63;15.60;;;6.50;99.90;;;;;;5139076;27;20915;-72
2023/02/22 02:17:12;;;;;;;38.80;17.77;;;6.50;99.90;;;;;;5138874;27;20493;-72
2023/02/22 02:19:41;;;;;;;32.33;16.73;;;6.60;99.90;;;;;;5138995;27;20226;-72
2023/02/22 02:22:37;;;;;;;37.90;16.63;;;6.60;99.90;;;;;;5137141;27;20812;-70
2023/02/22 02:25:46;;;;;;;40.93;15.37;;;6.60;99.90;;;;;;5126374;27;20414;-73
2023/02/22 02:28:49;;;;;;;43.93;17.93;;;6.60;99.90;;;;;;5134049;27;20417;-72
2023/02/22 02:31:43;;;;;;;51.77;17.47;;;6.60;99.90;;;;;;5135715;27;20421;-72
2023/02/22 02:34:31;;;;;;;41.93;17.40;;;6.60;99.90;;;;;;5095250;27;20559;-73
2023/02/22 02:37:19;;;;;;;50.07;19.10;;;6.50;99.90;;;;;;5134163;27;20414;-73
2023/02/22 02:40:05;;;;;;;30.43;16.40;;;6.40;99.90;;;;;;5135383;27;20483;-73
2023/02/22 02:42:41;;;;;;;37.30;14.80;;;6.40;99.90;;;;;;5102184;27;20418;-73
2023/02/22 02:45:17;;;;;;;46.63;19.07;;;6.50;99.90;;;;;;5114896;28;20462;-73
2023/02/22 02:47:50;;;;;;;33.87;16.97;;;6.50;99.90;;;;;;5114651;28;20527;-73
2023/02/22 02:50:24;;;;;;;47.90;18.30;;;6.50;99.90;;;;;;5113496;28;20433;-74
2023/02/22 02:52:55;;;;;;;51.20;20.90;;;6.50;99.90;;;;;;5113482;28;20403;-74
2023/02/22 02:55:21;;;;;;;30.73;14.87;;;6.60;99.90;;;;;;5114754;28;20435;-74
2023/02/22 02:57:46;;;;;;;39.93;18.10;;;6.60;99.90;;;;;;5113012;28;20407;-74
2023/02/22 03:00:21;;;;;;;29.50;15.60;;;6.60;99.90;;;;;;5115025;27;20831;-74
2023/02/22 03:03:23;;;;;;;28.17;15.20;;;6.60;99.90;;;;;;5145341;27;20168;-74
2023/02/22 03:06:12;;;;;;;34.10;15.90;;;6.60;99.90;;;;;;5117711;27;20401;-74
2023/02/22 03:08:44;;;;;;;44.57;17.97;;;6.60;99.90;;;;;;5112478;28;20457;-74
2023/02/22 03:11:27;;;;;;;39.87;18.63;;;6.60;99.90;;;;;;5123891;27;20421;-74
2023/02/22 03:13:55;;;;;;;35.10;16.33;;;6.50;99.90;;;;;;5133680;27;20520;-74
2023/02/22 03:16:33;;;;;;;31.97;15.87;;;6.50;99.90;;;;;;5134823;27;20437;-74
2023/02/22 03:19:13;;;;;;;46.37;15.20;;;6.50;99.90;;;;;;5134492;27;20461;-74
2023/02/22 03:22:01;;;;;;;45.30;15.50;;;6.40;99.90;;;;;;5133408;27;20402;-74
2023/02/22 03:24:57;;;;;;;33.03;14.80;;;6.30;99.90;;;;;;5134722;27;20967;-74
2023/02/22 03:27:53;;;;;;;27.97;13.93;;;6.20;99.90;;;;;;5134342;27;20406;-74
2023/02/22 03:30:30;;;;;;;27.90;14.60;;;6.30;99.90;;;;;;5133248;27;20437;-74
2023/02/22 03:33:07;;;;;;;39.87;15.50;;;6.30;99.90;;;;;;5133261;27;20785;-74
2023/02/22 03:35:37;;;;;;;49.67;15.53;;;6.20;99.90;;;;;;5133661;27;20406;-74
2023/02/22 03:38:07;;;;;;;27.40;15.30;;;6.20;99.90;;;;;;5132616;27;20434;-74
2023/02/22 03:40:38;;;;;;;43.30;15.97;;;6.20;99.90;;;;;;5129619;27;21156;-74
2023/02/22 03:43:13;;;;;;;22.63;11.70;;;6.20;99.90;;;;;;5112548;28;20936;-74
2023/02/22 03:45:42;;;;;;;22.10;12.30;;;6.30;99.90;;;;;;5113817;28;20475;-74
2023/02/22 03:48:29;;;;;;;21.30;12.80;;;6.30;99.90;;;;;;5112015;28;20406;-74
2023/02/22 03:50:57;;;;;;;31.27;13.97;;;6.40;99.90;;;;;;5112402;28;20986;-74
2023/02/22 03:53:23;;;;;;;40.43;19.80;;;6.30;99.90;;;;;;5113604;28;20394;-74
2023/02/22 03:55:51;;;;;;;29.97;13.97;;;6.30;99.90;;;;;;5112191;28;20762;-74
2023/02/22 03:58:20;;;;;;;21.43;13.33;;;6.40;99.90;;;;;;5111855;28;20461;-74
2023/02/22 04:00:45;;;;;;;33.50;13.60;;;6.50;99.90;;;;;;5113431;28;20395;-74
2023/02/22 04:03:11;;;;;;;24.07;12.67;;;6.40;99.90;;;;;;5113321;28;20403;-74
2023/02/22 04:05:37;;;;;;;25.10;15.07;;;6.40;99.90;;;;;;5113287;28;20156;-74
2023/02/22 04:08:05;;;;;;;32.20;16.93;;;6.40;99.90;;;;;;5112901;28;20203;-74
2023/02/22 04:10:32;;;;;;;27.17;13.67;;;6.40;99.90;;;;;;5114334;27;20194;-74
2023/02/22 04:12:58;;;;;;;27.87;14.20;;;6.40;99.90;;;;;;5132489;27;20816;-74
2023/02/22 04:15:24;;;;;;;23.40;13.40;;;6.50;99.90;;;;;;5137514;27;20444;-74
2023/02/22 04:17:51;;;;;;;25.00;11.93;;;6.50;99.90;;;;;;5133346;27;20398;-74
2023/02/22 04:20:18;;;;;;;26.03;14.60;;;6.50;99.90;;;;;;5132177;27;20903;-74
2023/02/22 04:22:44;;;;;;;20.60;12.83;;;6.60;99.90;;;;;;5133628;27;20398;-74
2023/02/22 04:25:10;;;;;;;26.60;13.00;;;6.70;99.90;;;;;;5132167;27;20485;-74
2023/02/22 04:27:35;;;;;;;25.83;14.73;;;6.70;99.90;;;;;;5113708;27;20483;-74
2023/02/22 04:30:01;;;;;;;27.00;13.67;;;6.70;99.90;;;;;;5111513;28;20215;-74
2023/02/22 04:32:27;;;;;;;27.97;13.97;;;6.80;99.90;;;;;;5112803;28;20214;-72
2023/02/22 04:34:52;;;;;;;28.07;13.63;;;6.80;99.90;;;;;;5111546;28;20176;-74
2023/02/22 04:37:18;;;;;;;26.07;14.07;;;6.80;99.90;;;;;;5112470;28;20214;-74
2023/02/22 04:39:43;;;;;;;23.67;12.47;;;6.80;99.90;;;;;;5119347;27;20252;-74
2023/02/22 04:42:09;;;;;;;26.90;14.10;;;6.70;99.90;;;;;;5133313;27;20508;-74
2023/02/22 04:44:35;;;;;;;27.47;14.63;;;6.70;99.90;;;;;;5131780;27;20168;-74
2023/02/22 04:47:00;;;;;;;28.63;15.07;;;6.70;99.90;;;;;;5132552;27;20175;-74
2023/02/22 04:49:26;;;;;;;40.23;14.40;;;6.70;99.90;;;;;;5133057;27;20198;-73
2023/02/22 04:51:51;;;;;;;28.50;14.10;;;6.60;99.90;;;;;;5131806;27;20694;-73
2023/02/22 04:54:17;;;;;;;24.30;13.43;;;6.60;99.90;;;;;;5133167;27;20269;-73
2023/02/22 04:56:43;;;;;;;26.97;13.23;;;6.60;99.90;;;;;;5131716;27;20187;-73
2023/02/22 04:59:09;;;;;;;30.43;15.97;;;6.50;99.90;;;;;;5132556;27;20200;-73
2023/02/22 05:01:35;;;;;;;25.77;14.83;;;6.50;99.90;;;;;;5133137;27;20535;-73
2023/02/22 05:04:02;;;;;;;24.43;13.13;;;6.40;99.90;;;;;;5129845;27;20201;-73
2023/02/22 05:06:28;;;;;;;18.53;12.00;;;6.40;99.90;;;;;;5111134;28;20405;-73
2023/02/22 05:08:53;;;;;;;27.00;12.70;;;6.50;99.90;;;;;;5115033;28;20795;-73
2023/02/22 05:11:19;;;;;;;19.13;11.37;;;6.30;99.90;;;;;;5125364;27;20537;-73
2023/02/22 05:13:44;;;;;;;19.20;12.97;;;6.40;99.90;;;;;;5112402;28;20183;-73
2023/02/22 05:16:10;;;;;;;21.60;12.03;;;6.40;99.90;;;;;;5110935;28;20234;-73
2023/02/22 05:18:35;;;;;;;29.87;14.67;;;6.30;99.90;;;;;;5110741;27;20219;-73
2023/02/22 05:21:01;;;;;;;26.07;13.30;;;6.30;99.90;;;;;;5144301;27;20171;-73
2023/02/22 05:23:26;;;;;;;32.80;13.27;;;6.20;99.90;;;;;;5132674;28;20217;-73
2023/02/22 05:25:52;;;;;;;32.83;13.10;;;6.20;99.90;;;;;;5131458;28;20172;-73
2023/02/22 05:28:17;;;;;;;28.50;12.30;;;6.20;99.90;;;;;;5132275;28;20160;-73
2023/02/22 05:30:43;;;;;;;30.77;13.83;;;6.10;99.90;;;;;;5132683;27;20646;-73
2023/02/22 05:33:09;;;;;;;26.30;12.30;;;6.10;99.90;;;;;;5132478;28;20169;-73
2023/02/22 05:35:35;;;;;;;21.57;12.60;;;6.00;99.90;;;;;;5131449;27;20191;-73
2023/02/22 05:38:02;;;;;;;29.40;13.77;;;6.10;99.90;;;;;;5130778;27;20168;-73
2023/02/22 05:40:29;;;;;;;28.77;13.10;;;6.00;99.90;;;;;;5111366;28;20943;-73
2023/02/22 05:42:56;;;;;;;27.73;12.50;;;5.90;99.90;;;;;;5112050;28;20904;-73
2023/02/22 05:45:24;;;;;;;18.40;11.27;;;5.80;99.90;;;;;;5110617;28;20456;-73
2023/02/22 05:47:50;;;;;;;21.07;13.20;;;5.80;99.90;;;;;;5111778;28;20395;-73
2023/02/22 05:50:16;;;;;;;54.60;16.63;;;5.80;99.90;;;;;;5112003;28;20452;-73
2023/02/22 05:52:42;;;;;;;22.50;11.33;;;5.70;99.90;;;;;;5112025;28;20176;-73
2023/02/22 05:55:09;;;;;;;16.60;11.50;;;5.60;99.90;;;;;;5112164;28;20441;-73
2023/02/22 05:57:35;;;;;;;28.93;13.10;;;5.70;99.90;;;;;;5112990;28;20214;-72
2023/02/22 06:00:03;;;;;;;25.07;14.17;;;5.70;99.90;;;;;;5115513;28;20453;-72
2023/02/22 06:02:28;;;;;;;45.00;14.67;;;5.60;99.90;;;;;;5122410;27;20410;-72
2023/02/22 06:04:54;;;;;;;21.53;10.63;;;5.60;99.90;;;;;;5114311;28;20399;-72
2023/02/22 06:07:19;;;;;;;28.03;14.60;;;5.60;99.90;;;;;;5114170;28;20171;-72
2023/02/22 06:09:45;;;;;;;22.60;13.10;;;5.50;99.90;;;;;;5115535;28;20191;-72
2023/02/22 06:12:10;;;;;;;20.87;11.40;;;5.50;99.90;;;;;;5115509;28;20568;-72
2023/02/22 06:14:36;;;;;;;26.90;11.47;;;5.60;99.90;;;;;;5115685;28;20188;-72
2023/02/22 06:17:04;;;;;;;20.47;12.50;;;5.50;99.90;;;;;;5117159;27;20161;-72
2023/02/22 06:19:29;;;;;;;21.93;11.80;;;5.50;99.90;;;;;;5116455;27;20279;-72
2023/02/22 06:21:58;;;;;;;20.50;10.93;;;5.50;99.90;;;;;;5115516;28;20535;-73
2023/02/22 06:24:24;;;;;;;36.23;15.80;;;5.50;99.90;;;;;;5115355;28;20301;-74
2023/02/22 06:27:00;;;;;;;26.33;13.93;;;5.50;99.90;;;;;;5113707;28;20992;-73
2023/02/22 06:29:27;;;;;;;24.40;12.27;;;5.50;99.90;;;;;;5115230;28;20425;-72
2023/02/22 06:31:53;;;;;;;20.33;13.13;;;5.40;99.90;;;;;;5141867;27;20404;-72
2023/02/22 06:34:20;;;;;;;23.90;11.93;;;5.40;99.90;;;;;;5137294;27;20510;-72
2023/02/22 06:36:47;;;;;;;37.93;15.00;;;5.40;99.90;;;;;;5135533;27;20661;-72
2023/02/22 06:39:14;;;;;;;29.13;13.17;;;5.30;99.90;;;;;;5134082;27;20820;-72
2023/02/22 06:41:41;;;;;;;28.53;12.20;;;5.40;99.90;;;;;;5135557;27;20791;-73
2023/02/22 06:44:07;;;;;;;21.40;12.47;;;5.30;99.90;;;;;;5117251;27;20436;-74
2023/02/22 06:46:32;;;;;;;23.37;13.23;;;5.40;99.90;;;;;;5134127;27;20430;-72
2023/02/22 06:48:58;;;;;;;31.40;13.93;;;5.40;99.90;;;;;;5135078;27;21003;-72
2023/02/22 06:51:25;;;;;;;24.30;12.53;;;5.50;99.90;;;;;;5133952;27;20172;-72
2023/02/22 06:53:51;;;;;;;31.10;14.13;;;5.50;99.90;;;;;;5135465;27;20160;-72
2023/02/22 06:56:16;;;;;;;25.97;12.87;;;5.60;99.90;;;;;;5135254;27;20478;-75
2023/02/22 06:58:42;;;;;;;23.40;12.87;;;5.60;99.90;;;;;;5134806;27;20282;-73
2023/02/22 07:01:07;;;;;;;27.83;15.40;;;5.60;99.90;;;;;;5119661;27;20169;-73
2023/02/22 07:03:34;;;;;;;22.93;13.70;;;5.60;99.90;;;;;;5114594;28;20165;-73
2023/02/22 07:06:01;;;;;;;34.13;14.43;;;5.60;99.90;;;;;;5133177;27;20654;-73
2023/02/22 07:08:27;;;;;;;45.37;14.50;;;5.70;99.90;;;;;;5133183;27;20477;-73
2023/02/22 07:10:53;;;;;;;30.83;13.00;;;5.70;99.90;;;;;;5133797;27;20765;-73
2023/02/22 07:13:18;;;;;;;23.10;13.70;;;5.80;99.90;;;;;;5134950;27;20520;-73
2023/02/22 07:15:44;;;;;;;20.47;13.40;;;5.80;99.90;;;;;;5133687;27;20516;-73
2023/02/22 07:18:10;;;;;;;27.57;14.80;;;5.80;99.90;;;;;;5133098;27;20229;-73
2023/02/22 07:20:36;;;;;;;22.97;13.03;;;5.80;99.90;;;;;;5134866;27;20161;-73
2023/02/22 07:23:03;;;;;;;22.33;12.13;;;5.80;99.90;;;;;;5133481;27;20961;-73
2023/02/22 07:25:28;;;;;;;25.43;14.33;;;5.90;99.90;;;;;;5134711;27;20397;-73
2023/02/22 07:27:54;;;;;;;24.27;13.23;;;5.90;99.90;;;;;;5134370;27;20447;-73
2023/02/22 07:30:26;;;;;;;24.53;14.23;;;6.00;99.90;;;;;;5125013;27;20599;-73
2023/02/22 07:32:53;;;;;;;31.80;15.27;;;6.00;99.90;;;;;;5112828;28;20165;-73
2023/02/22 07:35:31;;;;;;;27.90;14.17;;;6.10;99.90;;;;;;5113866;28;20410;-73
2023/02/22 07:37:57;;;;;;;32.57;12.50;;;6.20;99.90;;;;;;5113638;28;20379;-73
2023/02/22 07:40:25;;;;;;;22.10;11.77;;;6.30;99.90;;;;;;5113741;28;20987;-73
2023/02/22 07:43:11;;;;;;;26.07;14.20;;;6.40;99.90;;;;;;5131294;27;20401;-73
2023/02/22 07:45:37;;;;;;;27.57;13.50;;;6.50;99.90;;;;;;5137333;27;20410;-77
2023/02/22 07:48:05;;;;;;;25.30;14.40;;;6.60;99.90;;;;;;5132588;27;20398;-73
2023/02/22 07:50:32;;;;;;;28.83;12.23;;;6.80;99.90;;;;;;5134135;27;20248;-72
2023/02/22 07:53:03;;;;;;;25.27;14.07;;;6.90;99.90;;;;;;5134179;27;20497;-73
2023/02/22 07:55:30;;;;;;;29.50;13.60;;;7.00;99.90;;;;;;5134127;27;20478;-72
2023/02/22 07:58:01;;;;;;;28.07;15.17;;;7.10;99.90;;;;;;5132274;27;20410;-73
2023/02/22 08:00:31;;;;;;;38.47;16.57;;;7.30;99.90;;;;;;5121436;27;20414;-72
2023/02/22 08:02:59;;;;;;;29.77;15.17;;;7.40;99.90;;;;;;5113359;28;20429;-72
2023/02/22 08:05:26;;;;;;;24.47;13.47;;;7.60;99.90;;;;;;5127002;27;20911;-73
2023/02/22 08:07:52;;;;;;;23.87;14.07;;;7.60;99.90;;;;;;5127979;27;20890;-72
2023/02/22 08:10:19;;;;;;;31.80;14.50;;;7.70;99.90;;;;;;5113243;28;20489;-73
2023/02/22 08:12:45;;;;;;;29.37;15.43;;;7.80;99.90;;;;;;5113152;28;20176;-72
2023/02/22 08:15:18;;;;;;;31.10;15.40;;;7.90;99.90;;;;;;5111961;28;20418;-71
2023/02/22 08:17:44;;;;;;;34.03;15.33;;;8.20;99.90;;;;;;5112948;28;20161;-71
2023/02/22 08:20:09;;;;;;;27.87;16.77;;;8.50;99.90;;;;;;5110917;28;20522;-71
2023/02/22 08:22:35;;;;;;;36.07;17.83;;;8.90;99.90;;;;;;5113042;28;20248;-71
2023/02/22 08:25:00;;;;;;;37.23;18.13;;;9.30;99.90;;;;;;5112994;28;20262;-71
2023/02/22 08:27:28;;;;;;;37.57;17.40;;;9.90;99.90;;;;;;5112269;28;20569;-70
2023/02/22 08:29:55;;;;;;;34.97;17.73;;;10.50;99.90;;;;;;5122690;27;20204;-71
2023/02/22 08:32:21;;;;;;;30.57;16.50;;;11.10;99.90;;;;;;5132121;27;20463;-71
2023/02/22 08:34:48;;;;;;;37.17;18.13;;;11.70;99.90;;;;;;5133423;27;20610;-72
2023/02/22 08:37:15;;;;;;;25.93;15.87;;;12.20;99.90;;;;;;5133068;27;20475;-71
2023/02/22 08:39:41;;;;;;;25.93;16.00;;;12.90;99.90;;;;;;5133190;27;20449;-71
2023/02/22 08:42:08;;;;;;;21.13;14.43;;;13.30;99.90;;;;;;5133253;27;20396;-72
2023/02/22 08:44:34;;;;;;;18.20;13.00;;;13.60;99.90;;;;;;5133290;27;20161;-71
2023/02/22 08:46:59;;;;;;;20.00;13.00;;;14.00;99.90;;;;;;5132956;27;20435;-71
2023/02/22 08:49:25;;;;;;;21.30;13.80;;;14.10;99.90;;;;;;5131724;27;20524;-71
2023/02/22 08:51:50;;;;;;;21.07;12.17;;;14.20;99.90;;;;;;5145883;27;20275;-71
2023/02/22 08:54:17;;;;;;;16.60;11.73;;;14.40;99.90;;;;;;5131835;27;20172;-71
2023/02/22 08:56:42;;;;;;;20.67;11.17;;;14.60;99.90;;;;;;5133082;27;20163;-71
2023/02/22 08:59:08;;;;;;;17.10;9.70;;;14.90;99.90;;;;;;5126717;27;20446;-72
2023/02/22 09:01:34;;;;;;;17.20;9.53;;;15.20;99.90;;;;;;5129495;27;20172;-72
2023/02/22 09:04:00;;;;;;;12.57;8.97;;;15.60;99.90;;;;;;5131159;27;20164;-72
2023/02/22 09:06:25;;;;;;;11.37;8.90;;;16.00;99.90;;;;;;5112449;28;20187;-72
2023/02/22 09:08:51;;;;;;;17.57;8.33;;;15.70;99.90;;;;;;5112043;28;20937;-71
2023/02/22 09:11:17;;;;;;;10.10;8.20;;;15.40;99.90;;;;;;5114325;28;20671;-71
2023/02/22 09:13:43;;;;;;;11.47;8.33;;;15.50;99.90;;;;;;5113001;27;20192;-71
2023/02/22 09:16:08;;;;;;;11.13;7.43;;;15.30;99.90;;;;;;5112289;28;20403;-71
2023/02/22 09:18:34;;;;;;;11.90;7.97;;;15.60;99.90;;;;;;5111738;28;20238;-72
2023/02/22 09:20:59;;;;;;;12.60;9.07;;;15.80;99.90;;;;;;5112210;28;20200;-70
2023/02/22 09:23:26;;;;;;;10.97;7.53;;;16.20;99.90;;;;;;5112261;28;20171;-71
2023/02/22 09:25:51;;;;;;;14.80;9.40;;;16.20;99.90;;;;;;5112325;28;20210;-71
2023/02/22 09:28:17;;;;;;;12.03;9.70;;;16.40;99.90;;;;;;5111911;28;20390;-70
2023/02/22 09:30:43;;;;;;;9.87;8.10;;;16.80;99.90;;;;;;5112204;28;20149;-71
2023/02/22 09:33:12;;;;;;;10.80;9.27;;;17.00;99.90;;;;;;5114808;28;20165;-71
2023/02/22 09:35:45;;;;;;;15.60;9.70;;;17.20;99.90;;;;;;5116286;28;20207;-71
2023/02/22 09:38:12;;;;;;;12.20;8.30;;;17.40;99.90;;;;;;5116029;28;20371;-71
2023/02/22 09:40:55;;;;;;;11.40;9.10;;;17.60;99.90;;;;;;5116123;28;20527;-71
2023/02/22 09:43:43;;;;;;;13.03;8.43;;;17.90;99.90;;;;;;5116233;28;20402;-71
2023/02/22 09:46:24;;;;;;;13.10;9.00;;;18.60;99.90;;;;;;5114843;28;20409;-72
2023/02/22 09:48:56;;;;;;;10.23;8.30;;;19.10;99.90;;;;;;5115667;28;20441;-72
2023/02/22 09:51:27;;;;;;;13.53;9.00;;;19.80;99.10;;;;;;5116079;28;20407;-70
2023/02/22 09:53:56;;;;;;;12.40;9.23;;;20.00;95.30;;;;;;5116091;28;20402;-71
2023/02/22 09:56:25;;;;;;;10.97;9.80;;;19.90;92.70;;;;;;5115953;28;20394;-72
2023/02/22 09:58:55;;;;;;;15.67;8.60;;;20.40;93.70;;;;;;5122995;27;20955;-72
2023/02/22 10:01:28;;;;;;;11.90;10.10;;;20.70;90.20;;;;;;5136644;27;20405;-72
2023/02/22 10:04:09;;;;;;;12.93;8.30;;;21.30;86.90;;;;;;5147033;27;20398;-72
2023/02/22 10:06:35;;;;;;;13.33;8.17;;;21.70;84.60;;;;;;5115852;28;20395;-73
2023/02/22 10:09:09;;;;;;;16.40;9.47;;;22.00;81.00;;;;;;5115347;28;20515;-71
2023/02/22 10:12:00;;;;;;;17.73;8.83;;;22.10;75.70;;;;;;5115736;28;20451;-71
2023/02/22 10:14:56;;;;;;;14.23;9.27;;;22.60;75.00;;;;;;5115516;28;20434;-71
2023/02/22 10:17:57;;;;;;;12.33;7.80;;;22.90;69.80;;;;;;5115247;28;20425;-72
2023/02/22 10:21:01;;;;;;;11.57;9.13;;;23.40;67.50;;;;;;5115345;28;20514;-71
2023/02/22 10:23:41;;;;;;;10.83;7.80;;;23.30;65.40;;;;;;5115558;28;20398;-71
2023/02/22 10:26:11;;;;;;;8.53;7.50;;;24.30;66.70;;;;;;5113864;28;20855;-71
2023/02/22 10:28:59;;;;;;;12.50;7.50;;;25.10;63.80;;;;;;5121558;27;20441;-71
2023/02/22 10:31:29;;;;;;;10.10;8.13;;;25.90;59.40;;;;;;5135156;27;20941;-71
2023/02/22 10:34:02;;;;;;;13.07;8.03;;;26.20;55.80;;;;;;5135813;27;20441;-71
2023/02/22 10:36:28;;;;;;;8.63;7.83;;;26.50;55.10;;;;;;5134388;27;20471;-73
2023/02/22 10:39:22;;;;;;;13.80;8.70;;;26.40;53.90;;;;;;5135192;27;20460;-72
2023/02/22 10:41:52;;;;;;;10.70;8.63;;;26.20;52.80;;;;;;5135496;27;20402;-73
2023/02/22 10:44:18;;;;;;;11.43;7.90;;;26.20;53.30;;;;;;5134816;27;20417;-73
2023/02/22 10:46:46;;;;;;;11.23;8.47;;;26.70;53.10;;;;;;5135389;27;20477;-73
2023/02/22 10:49:21;;;;;;;8.67;7.10;;;26.80;52.10;;;;;;5117361;27;20192;-71
2023/02/22 10:51:59;;;;;;;9.20;7.77;;;27.70;52.70;;;;;;5114889;28;20451;-71
2023/02/22 10:54:30;;;;;;;9.53;8.20;;;28.00;51.20;;;;;;5114892;28;20493;-71
2023/02/22 10:56:56;;;;;;;10.60;7.73;;;28.30;50.30;;;;;;5114586;28;20558;-71
2023/02/22 10:59:31;;;;;;;9.90;7.93;;;28.90;49.50;;;;;;5128586;27;20465;-71
2023/02/22 11:01:57;;;;;;;9.43;8.30;;;29.50;48.20;;;;;;5135090;27;20455;-71
2023/02/22 11:04:23;;;;;;;8.50;7.50;;;30.00;47.40;;;;;;5130024;27;20407;-71
2023/02/22 11:07:09;;;;;;;12.30;7.87;;;30.40;46.80;;;;;;5114371;28;20452;-71
2023/02/22 11:09:55;;;;;;;12.10;7.73;;;30.30;46.30;;;;;;5150291;27;20516;-71
2023/02/22 11:12:29;;;;;;;8.17;6.30;;;30.30;45.80;;;;;;5134925;27;20476;-71
2023/02/22 11:14:55;;;;;;;9.40;7.37;;;30.40;46.00;;;;;;5134869;27;20424;-71
2023/02/22 11:17:29;;;;;;;9.10;8.13;;;30.90;46.30;;;;;;5134595;27;20397;-71
2023/02/22 11:19:56;;;;;;;9.60;7.57;;;30.30;45.00;;;;;;5134718;27;20543;-71
2023/02/22 11:22:44;;;;;;;11.77;8.37;;;30.30;45.10;;;;;;5134805;27;20410;-71
2023/02/22 11:25:20;;;;;;;8.90;8.00;;;30.50;44.80;;;;;;5134778;27;20398;-72
2023/02/22 11:27:46;;;;;;;8.30;7.27;;;30.70;44.60;;;;;;5129586;27;20413;-72
2023/02/22 11:30:23;;;;;;;8.97;7.67;;;31.60;44.60;;;;;;5114067;28;20793;-71
2023/02/22 11:33:09;;;;;;;9.03;7.30;;;32.20;43.60;;;;;;5112723;28;20619;-72
2023/02/22 11:35:49;;;;;;;9.20;7.73;;;33.00;42.80;;;;;;5114032;28;20406;-71
2023/02/22 11:38:21;;;;;;;8.70;7.73;;;33.10;41.80;;;;;;5113567;28;20398;-72
2023/02/22 11:41:05;;;;;;;10.07;9.07;;;33.30;41.20;;;;;;5113928;28;20399;-71
2023/02/22 11:43:31;;;;;;;8.67;7.77;;;32.70;41.10;;;;;;5113842;28;20877;-71
2023/02/22 11:46:12;;;;;;;13.07;7.20;;;33.20;41.60;;;;;;5113636;28;20501;-72
2023/02/22 11:48:43;;;;;;;6.67;6.07;;;33.50;41.40;;;;;;5113112;28;20434;-71
2023/02/22 11:51:18;;;;;;;8.20;6.50;;;33.70;40.90;;;;;;5113748;28;20414;-71
2023/02/22 11:54:03;;;;;;;9.13;7.60;;;33.60;40.70;;;;;;5113672;28;20440;-71
2023/02/22 11:56:45;;;;;;;7.37;6.67;;;32.70;40.10;;;;;;5112808;28;20497;-71
2023/02/22 11:59:37;;;;;;;8.23;7.40;;;31.70;40.80;;;;;;5122849;27;20461;-71
2023/02/22 12:02:40;;;;;;;8.97;6.53;;;30.90;41.70;;;;;;5134131;27;20406;-71
2023/02/22 12:05:39;;;;;;;8.10;6.47;;;30.10;42.40;;;;;;5122762;27;20406;-71
2023/02/22 12:08:23;;;;;;;8.17;6.23;;;30.10;43.20;;;;;;5113231;28;20379;-71
2023/02/22 12:11:19;;;;;;;8.07;7.23;;;30.50;43.10;;;;;;5113330;28;20480;-71
2023/02/22 12:14:28;;;;;;;6.43;5.50;;;30.70;43.10;;;;;;5112819;28;20435;-72
2023/02/22 12:17:22;;;;;;;5.50;4.97;;;30.60;42.70;;;;;;5085182;27;20429;-72
2023/02/22 12:19:57;;;;;;;6.73;6.03;;;30.80;42.90;;;;;;5142245;27;20468;-71
2023/02/22 12:22:28;;;;;;;5.93;5.37;;;30.60;42.70;;;;;;5137228;27;20551;-71
2023/02/22 12:25:05;;;;;;;6.20;5.60;;;30.50;42.30;;;;;;5133663;27;20876;-72
2023/02/22 12:27:53;;;;;;;7.03;5.70;;;30.10;42.20;;;;;;5133288;27;20431;-72
2023/02/22 12:30:51;;;;;;;8.60;6.53;;;29.60;42.40;;;;;;5133521;27;20414;-72
2023/02/22 12:33:25;;;;;;;5.03;4.53;;;29.30;43.60;;;;;;5133022;27;20426;-71
2023/02/22 12:35:55;;;;;;;7.90;6.20;;;28.90;43.60;;;;;;5133451;27;20863;-72
2023/02/22 12:38:37;;;;;;;5.77;4.80;;;28.60;43.90;;;;;;5133001;27;20903;-72
2023/02/22 12:41:24;;;;;;;5.63;4.57;;;28.40;44.00;;;;;;5132369;27;20425;-72
2023/02/22 12:44:05;;;;;;;7.57;5.37;;;28.20;43.90;;;;;;5133207;27;20429;-71
2023/02/22 12:46:40;;;;;;;7.13;4.80;;;27.60;44.30;;;;;;5133283;27;20426;-72
2023/02/22 12:49:30;;;;;;;4.33;3.93;;;27.40;45.10;;;;;;5124508;27;20445;-71
2023/02/22 12:52:08;;;;;;;8.60;5.00;;;27.00;45.70;;;;;;5133260;27;20496;-72
2023/02/22 12:55:03;;;;;;;5.87;4.97;;;26.90;46.00;;;;;;5133181;27;20433;-71
2023/02/22 12:57:46;;;;;;;5.27;4.77;;;27.10;46.40;;;;;;5132957;27;20405;-71
2023/02/22 13:00:34;;;;;;;3.57;3.27;;;27.20;46.20;;;;;;5132878;27;20982;-71